sensor_id;sensor_type;location;lat;lon;timestamp;P1;durP1;ratioP1;P2;durP2;ratioP2
8652;SDS011;4364;52.426;9.424;2024-01-25T00:01:35;24.50;;;5.43;;
8652;SDS011;4364;52.426;9.424;2024-01-25T00:04:01;25.27;;;5.23;;
8652;SDS011;4364;52.426;9.424;2024-01-25T00:06:29;23.50;;;5.30;;
8652;SDS011;4364;52.426;9.424;2024-01-25T00:08:56;25.47;;;5.20;;
8652;SDS011;4364;52.426;9.424;2024-01-25T00:11:22;20.80;;;6.10;;
8652;SDS011;4364;52.426;9.424;2024-01-25T00:13:49;23.60;;;5.23;;
8652;SDS011;4364;52.426;9.424;2024-01-25T00:16:16;22.20;;;5.70;;
8652;SDS011;4364;52.426;9.424;2024-01-25T00:18:43;24.27;;;5.63;;
8652;SDS011;4364;52.426;9.424;2024-01-25T00:21:09;23.23;;;5.63;;
8652;SDS011;4364;52.426;9.424;2024-01-25T00:23:36;22.77;;;5.30;;
8652;SDS011;4364;52.426;9.424;2024-01-25T00:26:02;31.63;;;6.23;;
8652;SDS011;4364;52.426;9.424;2024-01-25T00:28:29;32.27;;;6.67;;
8652;SDS011;4364;52.426;9.424;2024-01-25T00:30:56;27.33;;;5.13;;
8652;SDS011;4364;52.426;9.424;2024-01-25T00:33:22;23.67;;;5.90;;
8652;SDS011;4364;52.426;9.424;2024-01-25T00:35:49;28.50;;;5.67;;
8652;SDS011;4364;52.426;9.424;2024-01-25T00:38:16;21.57;;;5.67;;
8652;SDS011;4364;52.426;9.424;2024-01-25T00:40:43;30.33;;;6.07;;
8652;SDS011;4364;52.426;9.424;2024-01-25T00:43:10;31.97;;;6.20;;
8652;SDS011;4364;52.426;9.424;2024-01-25T00:45:37;29.00;;;5.87;;
8652;SDS011;4364;52.426;9.424;2024-01-25T00:48:04;24.33;;;5.67;;
8652;SDS011;4364;52.426;9.424;2024-01-25T00:50:31;30.37;;;5.63;;
8652;SDS011;4364;52.426;9.424;2024-01-25T00:52:58;19.33;;;5.07;;
8652;SDS011;4364;52.426;9.424;2024-01-25T00:55:24;32.40;;;5.70;;
8652;SDS011;4364;52.426;9.424;2024-01-25T00:57:52;26.87;;;5.70;;
8652;SDS011;4364;52.426;9.424;2024-01-25T01:00:19;22.30;;;5.27;;
8652;SDS011;4364;52.426;9.424;2024-01-25T01:02:46;27.40;;;5.33;;
8652;SDS011;4364;52.426;9.424;2024-01-25T01:05:13;32.40;;;5.93;;
8652;SDS011;4364;52.426;9.424;2024-01-25T01:07:41;27.13;;;5.67;;
8652;SDS011;4364;52.426;9.424;2024-01-25T01:10:08;27.37;;;6.27;;
8652;SDS011;4364;52.426;9.424;2024-01-25T01:12:36;27.30;;;5.47;;
8652;SDS011;4364;52.426;9.424;2024-01-25T01:15:03;27.20;;;5.93;;
8652;SDS011;4364;52.426;9.424;2024-01-25T01:17:30;32.63;;;5.73;;
8652;SDS011;4364;52.426;9.424;2024-01-25T01:19:58;26.83;;;5.33;;
8652;SDS011;4364;52.426;9.424;2024-01-25T01:22:25;32.57;;;6.20;;
8652;SDS011;4364;52.426;9.424;2024-01-25T01:24:51;26.37;;;5.97;;
8652;SDS011;4364;52.426;9.424;2024-01-25T01:27:18;20.50;;;5.50;;
8652;SDS011;4364;52.426;9.424;2024-01-25T01:29:46;25.43;;;5.83;;
8652;SDS011;4364;52.426;9.424;2024-01-25T01:32:13;31.00;;;6.33;;
8652;SDS011;4364;52.426;9.424;2024-01-25T01:34:39;18.97;;;5.07;;
8652;SDS011;4364;52.426;9.424;2024-01-25T01:37:06;31.27;;;5.80;;
8652;SDS011;4364;52.426;9.424;2024-01-25T01:39:33;29.33;;;5.90;;
8652;SDS011;4364;52.426;9.424;2024-01-25T01:41:59;23.50;;;4.83;;
8652;SDS011;4364;52.426;9.424;2024-01-25T01:44:27;30.43;;;6.27;;
8652;SDS011;4364;52.426;9.424;2024-01-25T01:46:53;29.60;;;5.70;;
8652;SDS011;4364;52.426;9.424;2024-01-25T01:49:21;27.33;;;5.40;;
8652;SDS011;4364;52.426;9.424;2024-01-25T01:51:48;27.40;;;5.07;;
8652;SDS011;4364;52.426;9.424;2024-01-25T01:54:15;30.03;;;5.50;;
8652;SDS011;4364;52.426;9.424;2024-01-25T01:56:42;23.00;;;5.57;;
8652;SDS011;4364;52.426;9.424;2024-01-25T01:59:11;20.47;;;4.73;;
8652;SDS011;4364;52.426;9.424;2024-01-25T02:01:38;27.73;;;5.23;;
8652;SDS011;4364;52.426;9.424;2024-01-25T02:04:05;25.50;;;5.20;;
8652;SDS011;4364;52.426;9.424;2024-01-25T02:06:32;22.23;;;5.47;;
8652;SDS011;4364;52.426;9.424;2024-01-25T02:08:58;27.67;;;5.40;;
8652;SDS011;4364;52.426;9.424;2024-01-25T02:11:26;31.27;;;5.17;;
8652;SDS011;4364;52.426;9.424;2024-01-25T02:13:53;29.70;;;5.60;;
8652;SDS011;4364;52.426;9.424;2024-01-25T02:16:19;28.80;;;5.70;;
8652;SDS011;4364;52.426;9.424;2024-01-25T02:18:46;21.90;;;5.83;;
8652;SDS011;4364;52.426;9.424;2024-01-25T02:21:14;17.20;;;4.50;;
8652;SDS011;4364;52.426;9.424;2024-01-25T02:23:41;25.17;;;5.17;;
8652;SDS011;4364;52.426;9.424;2024-01-25T02:26:08;24.57;;;6.00;;
8652;SDS011;4364;52.426;9.424;2024-01-25T02:28:34;28.10;;;5.60;;
8652;SDS011;4364;52.426;9.424;2024-01-25T02:31:02;25.00;;;4.97;;
8652;SDS011;4364;52.426;9.424;2024-01-25T02:33:29;27.60;;;5.23;;
8652;SDS011;4364;52.426;9.424;2024-01-25T02:35:56;23.73;;;5.33;;
8652;SDS011;4364;52.426;9.424;2024-01-25T02:38:22;25.87;;;6.47;;
8652;SDS011;4364;52.426;9.424;2024-01-25T02:40:49;24.40;;;5.00;;
8652;SDS011;4364;52.426;9.424;2024-01-25T02:43:16;24.87;;;5.60;;
8652;SDS011;4364;52.426;9.424;2024-01-25T02:45:43;28.13;;;5.73;;
8652;SDS011;4364;52.426;9.424;2024-01-25T02:48:10;21.97;;;5.00;;
8652;SDS011;4364;52.426;9.424;2024-01-25T02:50:37;24.47;;;5.23;;
8652;SDS011;4364;52.426;9.424;2024-01-25T02:53:03;30.27;;;5.80;;
8652;SDS011;4364;52.426;9.424;2024-01-25T02:55:31;25.10;;;5.13;;
8652;SDS011;4364;52.426;9.424;2024-01-25T02:57:58;25.33;;;4.73;;
8652;SDS011;4364;52.426;9.424;2024-01-25T03:00:24;28.50;;;5.40;;
8652;SDS011;4364;52.426;9.424;2024-01-25T03:02:51;22.67;;;5.00;;
8652;SDS011;4364;52.426;9.424;2024-01-25T03:05:17;27.07;;;5.37;;
8652;SDS011;4364;52.426;9.424;2024-01-25T03:07:44;23.93;;;4.97;;
8652;SDS011;4364;52.426;9.424;2024-01-25T03:10:12;24.93;;;4.70;;
8652;SDS011;4364;52.426;9.424;2024-01-25T03:12:40;27.03;;;5.20;;
8652;SDS011;4364;52.426;9.424;2024-01-25T03:15:06;30.07;;;5.80;;
8652;SDS011;4364;52.426;9.424;2024-01-25T03:17:33;19.43;;;4.97;;
8652;SDS011;4364;52.426;9.424;2024-01-25T03:20:00;25.40;;;5.37;;
8652;SDS011;4364;52.426;9.424;2024-01-25T03:22:27;21.50;;;4.37;;
8652;SDS011;4364;52.426;9.424;2024-01-25T03:24:54;25.47;;;4.97;;
8652;SDS011;4364;52.426;9.424;2024-01-25T03:27:20;25.97;;;4.87;;
8652;SDS011;4364;52.426;9.424;2024-01-25T03:29:47;26.63;;;6.43;;
8652;SDS011;4364;52.426;9.424;2024-01-25T03:32:13;25.03;;;5.30;;
8652;SDS011;4364;52.426;9.424;2024-01-25T03:34:40;24.40;;;4.53;;
8652;SDS011;4364;52.426;9.424;2024-01-25T03:37:06;30.40;;;5.40;;
8652;SDS011;4364;52.426;9.424;2024-01-25T03:39:33;25.10;;;4.70;;
8652;SDS011;4364;52.426;9.424;2024-01-25T03:42:00;26.93;;;5.00;;
8652;SDS011;4364;52.426;9.424;2024-01-25T03:44:27;25.60;;;5.47;;
8652;SDS011;4364;52.426;9.424;2024-01-25T03:46:54;24.67;;;4.67;;
8652;SDS011;4364;52.426;9.424;2024-01-25T03:49:20;26.57;;;4.77;;
8652;SDS011;4364;52.426;9.424;2024-01-25T03:51:49;24.37;;;5.07;;
8652;SDS011;4364;52.426;9.424;2024-01-25T03:54:16;29.40;;;5.33;;
8652;SDS011;4364;52.426;9.424;2024-01-25T03:56:43;22.80;;;4.83;;
8652;SDS011;4364;52.426;9.424;2024-01-25T03:59:09;23.97;;;4.60;;
8652;SDS011;4364;52.426;9.424;2024-01-25T04:01:45;32.67;;;6.40;;
8652;SDS011;4364;52.426;9.424;2024-01-25T04:04:13;22.50;;;5.13;;
8652;SDS011;4364;52.426;9.424;2024-01-25T04:06:42;20.17;;;4.60;;
8652;SDS011;4364;52.426;9.424;2024-01-25T04:09:09;27.70;;;5.17;;
8652;SDS011;4364;52.426;9.424;2024-01-25T04:11:36;32.00;;;5.10;;
8652;SDS011;4364;52.426;9.424;2024-01-25T04:14:03;25.57;;;4.90;;
8652;SDS011;4364;52.426;9.424;2024-01-25T04:16:32;28.20;;;4.93;;
8652;SDS011;4364;52.426;9.424;2024-01-25T04:18:59;23.37;;;5.50;;
8652;SDS011;4364;52.426;9.424;2024-01-25T04:21:28;27.03;;;5.60;;
8652;SDS011;4364;52.426;9.424;2024-01-25T04:23:54;23.43;;;5.17;;
8652;SDS011;4364;52.426;9.424;2024-01-25T04:26:21;24.73;;;4.40;;
8652;SDS011;4364;52.426;9.424;2024-01-25T04:28:48;26.17;;;5.03;;
8652;SDS011;4364;52.426;9.424;2024-01-25T04:31:15;19.17;;;4.83;;
8652;SDS011;4364;52.426;9.424;2024-01-25T04:33:42;26.63;;;5.03;;
8652;SDS011;4364;52.426;9.424;2024-01-25T04:36:14;25.80;;;5.23;;
8652;SDS011;4364;52.426;9.424;2024-01-25T04:38:40;24.27;;;5.77;;
8652;SDS011;4364;52.426;9.424;2024-01-25T04:41:06;26.87;;;5.00;;
8652;SDS011;4364;52.426;9.424;2024-01-25T04:43:33;21.97;;;4.93;;
8652;SDS011;4364;52.426;9.424;2024-01-25T04:46:03;26.90;;;4.90;;
8652;SDS011;4364;52.426;9.424;2024-01-25T04:48:30;22.23;;;5.23;;
8652;SDS011;4364;52.426;9.424;2024-01-25T04:50:58;24.17;;;4.57;;
8652;SDS011;4364;52.426;9.424;2024-01-25T04:53:25;22.10;;;4.17;;
8652;SDS011;4364;52.426;9.424;2024-01-25T04:55:53;18.67;;;4.83;;
8652;SDS011;4364;52.426;9.424;2024-01-25T04:58:20;26.17;;;4.90;;
8652;SDS011;4364;52.426;9.424;2024-01-25T05:00:47;21.17;;;4.37;;
8652;SDS011;4364;52.426;9.424;2024-01-25T05:03:13;26.90;;;5.40;;
8652;SDS011;4364;52.426;9.424;2024-01-25T05:05:40;23.70;;;4.67;;
8652;SDS011;4364;52.426;9.424;2024-01-25T05:08:06;26.67;;;4.70;;
8652;SDS011;4364;52.426;9.424;2024-01-25T05:10:33;21.43;;;4.87;;
8652;SDS011;4364;52.426;9.424;2024-01-25T05:13:02;28.80;;;4.83;;
8652;SDS011;4364;52.426;9.424;2024-01-25T05:15:29;27.87;;;5.10;;
8652;SDS011;4364;52.426;9.424;2024-01-25T05:17:56;24.17;;;5.00;;
8652;SDS011;4364;52.426;9.424;2024-01-25T05:20:22;21.57;;;4.83;;
8652;SDS011;4364;52.426;9.424;2024-01-25T05:22:49;21.77;;;4.83;;
8652;SDS011;4364;52.426;9.424;2024-01-25T05:25:16;26.27;;;5.20;;
8652;SDS011;4364;52.426;9.424;2024-01-25T05:27:43;21.87;;;4.77;;
8652;SDS011;4364;52.426;9.424;2024-01-25T05:30:09;20.93;;;4.30;;
8652;SDS011;4364;52.426;9.424;2024-01-25T05:32:36;25.07;;;5.07;;
8652;SDS011;4364;52.426;9.424;2024-01-25T05:35:03;24.63;;;4.87;;
8652;SDS011;4364;52.426;9.424;2024-01-25T05:37:31;20.13;;;4.97;;
8652;SDS011;4364;52.426;9.424;2024-01-25T05:39:58;23.33;;;4.67;;
8652;SDS011;4364;52.426;9.424;2024-01-25T05:42:25;21.80;;;4.83;;
8652;SDS011;4364;52.426;9.424;2024-01-25T05:44:52;25.43;;;4.63;;
8652;SDS011;4364;52.426;9.424;2024-01-25T05:47:19;27.07;;;5.40;;
8652;SDS011;4364;52.426;9.424;2024-01-25T05:49:45;29.97;;;6.60;;
8652;SDS011;4364;52.426;9.424;2024-01-25T05:52:13;32.33;;;4.77;;
8652;SDS011;4364;52.426;9.424;2024-01-25T05:54:40;26.53;;;5.77;;
8652;SDS011;4364;52.426;9.424;2024-01-25T05:57:07;34.20;;;5.53;;
8652;SDS011;4364;52.426;9.424;2024-01-25T05:59:33;26.33;;;5.37;;
8652;SDS011;4364;52.426;9.424;2024-01-25T06:02:00;24.33;;;5.20;;
8652;SDS011;4364;52.426;9.424;2024-01-25T06:04:27;25.53;;;5.10;;
8652;SDS011;4364;52.426;9.424;2024-01-25T06:06:54;25.10;;;5.30;;
8652;SDS011;4364;52.426;9.424;2024-01-25T06:09:21;33.43;;;5.40;;
8652;SDS011;4364;52.426;9.424;2024-01-25T06:11:47;29.03;;;4.60;;
8652;SDS011;4364;52.426;9.424;2024-01-25T06:14:14;24.13;;;5.23;;
8652;SDS011;4364;52.426;9.424;2024-01-25T06:16:40;31.37;;;5.67;;
8652;SDS011;4364;52.426;9.424;2024-01-25T06:19:06;22.47;;;5.37;;
8652;SDS011;4364;52.426;9.424;2024-01-25T06:21:34;26.50;;;7.00;;
8652;SDS011;4364;52.426;9.424;2024-01-25T06:24:02;34.67;;;6.60;;
8652;SDS011;4364;52.426;9.424;2024-01-25T06:26:28;25.40;;;6.10;;
8652;SDS011;4364;52.426;9.424;2024-01-25T06:28:55;24.30;;;5.23;;
8652;SDS011;4364;52.426;9.424;2024-01-25T06:31:23;31.10;;;5.47;;
8652;SDS011;4364;52.426;9.424;2024-01-25T06:33:50;28.57;;;5.20;;
8652;SDS011;4364;52.426;9.424;2024-01-25T06:36:19;23.47;;;5.20;;
8652;SDS011;4364;52.426;9.424;2024-01-25T06:38:46;21.53;;;4.70;;
8652;SDS011;4364;52.426;9.424;2024-01-25T06:41:12;22.37;;;5.37;;
8652;SDS011;4364;52.426;9.424;2024-01-25T06:43:39;22.83;;;5.00;;
8652;SDS011;4364;52.426;9.424;2024-01-25T06:46:06;33.07;;;5.37;;
8652;SDS011;4364;52.426;9.424;2024-01-25T06:48:33;26.23;;;5.97;;
8652;SDS011;4364;52.426;9.424;2024-01-25T06:51:00;29.40;;;6.17;;
8652;SDS011;4364;52.426;9.424;2024-01-25T06:53:27;26.80;;;6.20;;
8652;SDS011;4364;52.426;9.424;2024-01-25T06:55:54;28.43;;;5.80;;
8652;SDS011;4364;52.426;9.424;2024-01-25T06:58:20;27.17;;;5.83;;
8652;SDS011;4364;52.426;9.424;2024-01-25T07:00:48;21.43;;;5.00;;
8652;SDS011;4364;52.426;9.424;2024-01-25T07:03:15;25.77;;;5.33;;
8652;SDS011;4364;52.426;9.424;2024-01-25T07:05:42;26.47;;;5.57;;
8652;SDS011;4364;52.426;9.424;2024-01-25T07:08:08;27.70;;;5.73;;
8652;SDS011;4364;52.426;9.424;2024-01-25T07:10:39;34.83;;;6.20;;
8652;SDS011;4364;52.426;9.424;2024-01-25T07:13:06;25.30;;;5.37;;
8652;SDS011;4364;52.426;9.424;2024-01-25T07:15:33;26.30;;;6.00;;
8652;SDS011;4364;52.426;9.424;2024-01-25T07:18:00;31.90;;;5.83;;
8652;SDS011;4364;52.426;9.424;2024-01-25T07:20:27;29.13;;;5.50;;
8652;SDS011;4364;52.426;9.424;2024-01-25T07:22:54;19.33;;;4.83;;
8652;SDS011;4364;52.426;9.424;2024-01-25T07:25:21;26.83;;;5.60;;
8652;SDS011;4364;52.426;9.424;2024-01-25T07:27:47;33.97;;;5.87;;
8652;SDS011;4364;52.426;9.424;2024-01-25T07:30:15;24.57;;;5.90;;
8652;SDS011;4364;52.426;9.424;2024-01-25T07:32:42;24.77;;;5.47;;
8652;SDS011;4364;52.426;9.424;2024-01-25T07:35:09;27.13;;;5.33;;
8652;SDS011;4364;52.426;9.424;2024-01-25T07:37:39;23.53;;;5.40;;
8652;SDS011;4364;52.426;9.424;2024-01-25T07:40:07;27.80;;;5.60;;
8652;SDS011;4364;52.426;9.424;2024-01-25T07:42:34;29.13;;;5.90;;
8652;SDS011;4364;52.426;9.424;2024-01-25T07:45:01;32.10;;;6.07;;
8652;SDS011;4364;52.426;9.424;2024-01-25T07:47:28;30.83;;;6.70;;
8652;SDS011;4364;52.426;9.424;2024-01-25T07:49:54;29.53;;;6.23;;
8652;SDS011;4364;52.426;9.424;2024-01-25T07:52:21;34.97;;;6.73;;
8652;SDS011;4364;52.426;9.424;2024-01-25T07:54:51;29.63;;;6.83;;
8652;SDS011;4364;52.426;9.424;2024-01-25T07:57:19;25.37;;;5.83;;
8652;SDS011;4364;52.426;9.424;2024-01-25T07:59:46;32.73;;;5.43;;
8652;SDS011;4364;52.426;9.424;2024-01-25T08:02:12;31.73;;;6.50;;
8652;SDS011;4364;52.426;9.424;2024-01-25T08:04:42;26.87;;;5.80;;
8652;SDS011;4364;52.426;9.424;2024-01-25T08:07:09;30.60;;;6.63;;
8652;SDS011;4364;52.426;9.424;2024-01-25T08:09:35;34.37;;;6.47;;
8652;SDS011;4364;52.426;9.424;2024-01-25T08:12:02;26.87;;;5.30;;
8652;SDS011;4364;52.426;9.424;2024-01-25T08:14:28;27.77;;;6.33;;
8652;SDS011;4364;52.426;9.424;2024-01-25T08:16:55;31.00;;;6.60;;
8652;SDS011;4364;52.426;9.424;2024-01-25T08:19:22;32.07;;;6.10;;
8652;SDS011;4364;52.426;9.424;2024-01-25T08:21:48;33.17;;;6.83;;
8652;SDS011;4364;52.426;9.424;2024-01-25T08:24:16;37.13;;;6.80;;
8652;SDS011;4364;52.426;9.424;2024-01-25T08:26:43;31.00;;;7.20;;
8652;SDS011;4364;52.426;9.424;2024-01-25T08:29:10;29.93;;;6.00;;
8652;SDS011;4364;52.426;9.424;2024-01-25T08:31:37;27.67;;;5.90;;
8652;SDS011;4364;52.426;9.424;2024-01-25T08:34:04;33.93;;;6.23;;
8652;SDS011;4364;52.426;9.424;2024-01-25T08:36:31;31.53;;;5.97;;
8652;SDS011;4364;52.426;9.424;2024-01-25T08:38:57;31.30;;;5.87;;
8652;SDS011;4364;52.426;9.424;2024-01-25T08:41:24;31.07;;;5.73;;
8652;SDS011;4364;52.426;9.424;2024-01-25T08:43:51;28.23;;;5.67;;
8652;SDS011;4364;52.426;9.424;2024-01-25T08:46:17;21.73;;;6.00;;
8652;SDS011;4364;52.426;9.424;2024-01-25T08:48:44;28.27;;;6.13;;
8652;SDS011;4364;52.426;9.424;2024-01-25T08:51:12;31.63;;;6.77;;
8652;SDS011;4364;52.426;9.424;2024-01-25T08:53:38;28.97;;;6.53;;
8652;SDS011;4364;52.426;9.424;2024-01-25T08:56:05;27.67;;;6.43;;
8652;SDS011;4364;52.426;9.424;2024-01-25T08:58:32;28.17;;;6.57;;
8652;SDS011;4364;52.426;9.424;2024-01-25T09:00:59;28.87;;;5.90;;
8652;SDS011;4364;52.426;9.424;2024-01-25T09:03:27;26.60;;;6.50;;
8652;SDS011;4364;52.426;9.424;2024-01-25T09:05:54;31.90;;;5.93;;
8652;SDS011;4364;52.426;9.424;2024-01-25T09:08:20;24.23;;;6.00;;
8652;SDS011;4364;52.426;9.424;2024-01-25T09:10:48;30.27;;;6.13;;
8652;SDS011;4364;52.426;9.424;2024-01-25T09:13:14;28.00;;;6.43;;
8652;SDS011;4364;52.426;9.424;2024-01-25T09:15:41;31.67;;;6.67;;
8652;SDS011;4364;52.426;9.424;2024-01-25T09:18:09;33.37;;;6.83;;
8652;SDS011;4364;52.426;9.424;2024-01-25T09:20:36;32.03;;;6.83;;
8652;SDS011;4364;52.426;9.424;2024-01-25T09:23:02;33.63;;;7.17;;
8652;SDS011;4364;52.426;9.424;2024-01-25T09:25:29;25.90;;;6.60;;
8652;SDS011;4364;52.426;9.424;2024-01-25T09:27:56;22.80;;;6.20;;
8652;SDS011;4364;52.426;9.424;2024-01-25T09:30:23;35.23;;;7.60;;
8652;SDS011;4364;52.426;9.424;2024-01-25T09:32:50;29.00;;;7.33;;
8652;SDS011;4364;52.426;9.424;2024-01-25T09:35:17;30.90;;;6.70;;
8652;SDS011;4364;52.426;9.424;2024-01-25T09:37:44;31.20;;;6.30;;
8652;SDS011;4364;52.426;9.424;2024-01-25T09:40:10;26.90;;;6.33;;
8652;SDS011;4364;52.426;9.424;2024-01-25T09:42:37;35.13;;;7.37;;
8652;SDS011;4364;52.426;9.424;2024-01-25T09:45:05;29.17;;;6.37;;
8652;SDS011;4364;52.426;9.424;2024-01-25T09:47:32;31.50;;;7.33;;
8652;SDS011;4364;52.426;9.424;2024-01-25T09:49:59;25.97;;;5.73;;
8652;SDS011;4364;52.426;9.424;2024-01-25T09:52:28;25.37;;;6.20;;
8652;SDS011;4364;52.426;9.424;2024-01-25T09:54:56;33.97;;;7.30;;
8652;SDS011;4364;52.426;9.424;2024-01-25T09:57:24;31.43;;;6.40;;
8652;SDS011;4364;52.426;9.424;2024-01-25T09:59:54;28.57;;;7.17;;
8652;SDS011;4364;52.426;9.424;2024-01-25T10:02:23;34.83;;;7.37;;
8652;SDS011;4364;52.426;9.424;2024-01-25T10:04:51;30.87;;;6.17;;
8652;SDS011;4364;52.426;9.424;2024-01-25T10:07:39;28.20;;;6.17;;
8652;SDS011;4364;52.426;9.424;2024-01-25T10:10:07;26.80;;;6.93;;
8652;SDS011;4364;52.426;9.424;2024-01-25T10:12:34;26.10;;;7.53;;
8652;SDS011;4364;52.426;9.424;2024-01-25T10:15:01;27.43;;;6.60;;
8652;SDS011;4364;52.426;9.424;2024-01-25T10:17:30;28.63;;;7.47;;
8652;SDS011;4364;52.426;9.424;2024-01-25T10:20:17;33.47;;;6.57;;
8652;SDS011;4364;52.426;9.424;2024-01-25T10:22:47;26.73;;;7.97;;
8652;SDS011;4364;52.426;9.424;2024-01-25T10:25:14;36.03;;;7.93;;
8652;SDS011;4364;52.426;9.424;2024-01-25T10:27:41;25.23;;;7.10;;
8652;SDS011;4364;52.426;9.424;2024-01-25T10:30:09;31.13;;;8.23;;
8652;SDS011;4364;52.426;9.424;2024-01-25T10:32:37;31.33;;;7.57;;
8652;SDS011;4364;52.426;9.424;2024-01-25T10:35:04;28.60;;;7.27;;
8652;SDS011;4364;52.426;9.424;2024-01-25T10:37:31;34.53;;;8.17;;
8652;SDS011;4364;52.426;9.424;2024-01-25T10:39:59;28.03;;;7.80;;
8652;SDS011;4364;52.426;9.424;2024-01-25T10:42:27;27.30;;;7.87;;
8652;SDS011;4364;52.426;9.424;2024-01-25T10:44:53;28.20;;;7.37;;
8652;SDS011;4364;52.426;9.424;2024-01-25T10:47:20;25.17;;;6.93;;
8652;SDS011;4364;52.426;9.424;2024-01-25T10:49:47;26.00;;;6.27;;
8652;SDS011;4364;52.426;9.424;2024-01-25T10:52:15;27.83;;;6.80;;
8652;SDS011;4364;52.426;9.424;2024-01-25T10:54:43;33.73;;;11.97;;
8652;SDS011;4364;52.426;9.424;2024-01-25T10:57:10;31.67;;;10.33;;
8652;SDS011;4364;52.426;9.424;2024-01-25T10:59:36;29.20;;;6.47;;
8652;SDS011;4364;52.426;9.424;2024-01-25T11:02:03;30.13;;;7.37;;
8652;SDS011;4364;52.426;9.424;2024-01-25T11:04:31;32.33;;;7.73;;
8652;SDS011;4364;52.426;9.424;2024-01-25T11:07:04;27.20;;;7.57;;
8652;SDS011;4364;52.426;9.424;2024-01-25T11:09:33;22.93;;;7.57;;
8652;SDS011;4364;52.426;9.424;2024-01-25T11:12:10;34.13;;;8.90;;
8652;SDS011;4364;52.426;9.424;2024-01-25T11:14:38;31.53;;;9.33;;
8652;SDS011;4364;52.426;9.424;2024-01-25T11:17:15;27.00;;;8.97;;
8652;SDS011;4364;52.426;9.424;2024-01-25T11:19:44;29.53;;;8.73;;
8652;SDS011;4364;52.426;9.424;2024-01-25T11:22:11;26.10;;;7.07;;
8652;SDS011;4364;52.426;9.424;2024-01-25T11:24:38;31.83;;;7.43;;
8652;SDS011;4364;52.426;9.424;2024-01-25T11:27:09;24.20;;;7.10;;
8652;SDS011;4364;52.426;9.424;2024-01-25T11:29:37;25.77;;;7.33;;
8652;SDS011;4364;52.426;9.424;2024-01-25T11:32:06;21.23;;;7.00;;
8652;SDS011;4364;52.426;9.424;2024-01-25T11:34:33;27.97;;;7.20;;
8652;SDS011;4364;52.426;9.424;2024-01-25T11:37:00;25.07;;;6.60;;
8652;SDS011;4364;52.426;9.424;2024-01-25T11:39:26;26.90;;;7.13;;
8652;SDS011;4364;52.426;9.424;2024-01-25T11:41:54;32.77;;;7.17;;
8652;SDS011;4364;52.426;9.424;2024-01-25T11:44:20;27.97;;;6.43;;
8652;SDS011;4364;52.426;9.424;2024-01-25T11:46:50;29.20;;;7.07;;
8652;SDS011;4364;52.426;9.424;2024-01-25T11:49:17;27.70;;;7.00;;
8652;SDS011;4364;52.426;9.424;2024-01-25T11:51:44;23.30;;;6.70;;
8652;SDS011;4364;52.426;9.424;2024-01-25T11:54:10;25.07;;;6.27;;
8652;SDS011;4364;52.426;9.424;2024-01-25T11:56:38;30.93;;;6.83;;
8652;SDS011;4364;52.426;9.424;2024-01-25T11:59:08;32.50;;;7.30;;
8652;SDS011;4364;52.426;9.424;2024-01-25T12:01:36;24.23;;;7.00;;
8652;SDS011;4364;52.426;9.424;2024-01-25T12:04:03;28.30;;;8.17;;
8652;SDS011;4364;52.426;9.424;2024-01-25T12:06:30;27.33;;;7.30;;
8652;SDS011;4364;52.426;9.424;2024-01-25T12:09:05;30.80;;;7.00;;
8652;SDS011;4364;52.426;9.424;2024-01-25T12:11:34;18.40;;;6.40;;
8652;SDS011;4364;52.426;9.424;2024-01-25T12:14:01;31.93;;;7.33;;
8652;SDS011;4364;52.426;9.424;2024-01-25T12:16:27;24.73;;;7.60;;
8652;SDS011;4364;52.426;9.424;2024-01-25T12:18:55;29.93;;;7.30;;
8652;SDS011;4364;52.426;9.424;2024-01-25T12:21:22;22.70;;;6.43;;
8652;SDS011;4364;52.426;9.424;2024-01-25T12:23:49;24.20;;;6.37;;
8652;SDS011;4364;52.426;9.424;2024-01-25T12:26:17;31.70;;;8.07;;
8652;SDS011;4364;52.426;9.424;2024-01-25T12:28:43;27.33;;;7.90;;
8652;SDS011;4364;52.426;9.424;2024-01-25T12:31:10;23.80;;;7.27;;
8652;SDS011;4364;52.426;9.424;2024-01-25T12:33:37;25.77;;;5.73;;
8652;SDS011;4364;52.426;9.424;2024-01-25T12:36:04;30.93;;;8.07;;
8652;SDS011;4364;52.426;9.424;2024-01-25T12:38:31;26.80;;;6.13;;
8652;SDS011;4364;52.426;9.424;2024-01-25T12:41:00;23.13;;;6.37;;
8652;SDS011;4364;52.426;9.424;2024-01-25T12:43:28;25.60;;;5.73;;
8652;SDS011;4364;52.426;9.424;2024-01-25T12:45:56;23.87;;;5.63;;
8652;SDS011;4364;52.426;9.424;2024-01-25T12:48:34;29.23;;;5.27;;
8652;SDS011;4364;52.426;9.424;2024-01-25T12:51:01;17.03;;;5.73;;
8652;SDS011;4364;52.426;9.424;2024-01-25T12:53:28;24.50;;;5.90;;
8652;SDS011;4364;52.426;9.424;2024-01-25T12:55:55;26.33;;;5.50;;
8652;SDS011;4364;52.426;9.424;2024-01-25T12:58:21;25.67;;;6.27;;
8652;SDS011;4364;52.426;9.424;2024-01-25T13:00:48;24.03;;;6.23;;
8652;SDS011;4364;52.426;9.424;2024-01-25T13:03:15;21.40;;;5.70;;
8652;SDS011;4364;52.426;9.424;2024-01-25T13:05:41;19.63;;;6.10;;
8652;SDS011;4364;52.426;9.424;2024-01-25T13:08:08;21.80;;;5.23;;
8652;SDS011;4364;52.426;9.424;2024-01-25T13:10:36;26.47;;;5.87;;
8652;SDS011;4364;52.426;9.424;2024-01-25T13:13:02;31.03;;;7.57;;
8652;SDS011;4364;52.426;9.424;2024-01-25T13:15:29;21.50;;;5.70;;
8652;SDS011;4364;52.426;9.424;2024-01-25T13:17:56;26.60;;;6.23;;
8652;SDS011;4364;52.426;9.424;2024-01-25T13:20:23;20.93;;;5.80;;
8652;SDS011;4364;52.426;9.424;2024-01-25T13:22:49;30.13;;;6.30;;
8652;SDS011;4364;52.426;9.424;2024-01-25T13:25:16;26.07;;;6.17;;
8652;SDS011;4364;52.426;9.424;2024-01-25T13:27:42;22.37;;;5.40;;
8652;SDS011;4364;52.426;9.424;2024-01-25T13:30:09;24.63;;;5.10;;
8652;SDS011;4364;52.426;9.424;2024-01-25T13:32:38;18.03;;;4.90;;
8652;SDS011;4364;52.426;9.424;2024-01-25T13:35:05;23.10;;;6.03;;
8652;SDS011;4364;52.426;9.424;2024-01-25T13:37:33;24.37;;;5.77;;
8652;SDS011;4364;52.426;9.424;2024-01-25T13:39:59;24.70;;;5.93;;
8652;SDS011;4364;52.426;9.424;2024-01-25T13:42:26;25.43;;;5.17;;
8652;SDS011;4364;52.426;9.424;2024-01-25T13:44:52;25.67;;;5.10;;
8652;SDS011;4364;52.426;9.424;2024-01-25T13:47:19;23.27;;;5.40;;
8652;SDS011;4364;52.426;9.424;2024-01-25T13:49:45;26.97;;;5.43;;
8652;SDS011;4364;52.426;9.424;2024-01-25T13:52:16;23.93;;;5.87;;
8652;SDS011;4364;52.426;9.424;2024-01-25T13:54:46;25.43;;;5.87;;
8652;SDS011;4364;52.426;9.424;2024-01-25T13:57:14;24.10;;;5.27;;
8652;SDS011;4364;52.426;9.424;2024-01-25T13:59:41;22.93;;;5.73;;
8652;SDS011;4364;52.426;9.424;2024-01-25T14:02:08;25.07;;;5.20;;
8652;SDS011;4364;52.426;9.424;2024-01-25T14:04:34;19.50;;;4.87;;
8652;SDS011;4364;52.426;9.424;2024-01-25T14:07:01;20.53;;;5.10;;
8652;SDS011;4364;52.426;9.424;2024-01-25T14:09:28;24.90;;;6.17;;
8652;SDS011;4364;52.426;9.424;2024-01-25T14:11:56;22.47;;;5.63;;
8652;SDS011;4364;52.426;9.424;2024-01-25T14:14:22;19.73;;;5.10;;
8652;SDS011;4364;52.426;9.424;2024-01-25T14:16:49;18.77;;;5.77;;
8652;SDS011;4364;52.426;9.424;2024-01-25T14:19:16;21.03;;;5.00;;
8652;SDS011;4364;52.426;9.424;2024-01-25T14:21:43;25.67;;;5.60;;
8652;SDS011;4364;52.426;9.424;2024-01-25T14:24:12;24.00;;;7.00;;
8652;SDS011;4364;52.426;9.424;2024-01-25T14:26:39;29.97;;;6.20;;
8652;SDS011;4364;52.426;9.424;2024-01-25T14:29:05;26.03;;;7.57;;
8652;SDS011;4364;52.426;9.424;2024-01-25T14:31:32;23.23;;;5.83;;
8652;SDS011;4364;52.426;9.424;2024-01-25T14:33:59;24.90;;;6.93;;
8652;SDS011;4364;52.426;9.424;2024-01-25T14:36:25;30.17;;;7.30;;
8652;SDS011;4364;52.426;9.424;2024-01-25T14:38:52;22.70;;;6.30;;
8652;SDS011;4364;52.426;9.424;2024-01-25T14:41:18;32.70;;;8.60;;
8652;SDS011;4364;52.426;9.424;2024-01-25T14:43:45;26.53;;;7.00;;
8652;SDS011;4364;52.426;9.424;2024-01-25T14:46:11;32.47;;;8.60;;
8652;SDS011;4364;52.426;9.424;2024-01-25T14:48:37;28.77;;;6.93;;
8652;SDS011;4364;52.426;9.424;2024-01-25T14:51:04;22.13;;;6.30;;
8652;SDS011;4364;52.426;9.424;2024-01-25T14:53:31;21.90;;;5.50;;
8652;SDS011;4364;52.426;9.424;2024-01-25T14:56:00;28.63;;;7.03;;
8652;SDS011;4364;52.426;9.424;2024-01-25T14:58:28;24.23;;;6.10;;
8652;SDS011;4364;52.426;9.424;2024-01-25T15:00:55;25.57;;;6.23;;